createdAt,value
2023-02-03T00:01:25.361Z,11.00
2023-02-03T00:05:07.827Z,11.00
2023-02-03T00:08:54.198Z,11.00
2023-02-03T00:12:36.014Z,11.00
2023-02-03T00:16:17.903Z,10.90
2023-02-03T00:19:59.624Z,11.00
2023-02-03T00:23:42.251Z,11.00
2023-02-03T00:27:24.085Z,10.90
2023-02-03T00:31:06.267Z,10.90
2023-02-03T00:34:48.001Z,10.90
2023-02-03T00:38:29.825Z,10.90
2023-02-03T00:42:11.564Z,10.90
2023-02-03T00:45:53.432Z,10.90
2023-02-03T00:49:35.161Z,10.90
2023-02-03T00:53:17.004Z,10.90
2023-02-03T00:56:58.776Z,10.90
2023-02-03T01:00:40.522Z,10.80
2023-02-03T01:04:22.226Z,10.80
2023-02-03T01:08:04.194Z,10.80
2023-02-03T01:11:45.902Z,10.70
2023-02-03T01:15:27.682Z,10.70
2023-02-03T01:19:09.738Z,10.70
2023-02-03T01:22:51.474Z,10.70
2023-02-03T01:26:33.248Z,10.70
2023-02-03T01:30:15.103Z,10.70
2023-02-03T01:33:57.487Z,10.70
2023-02-03T01:37:39.290Z,10.60
2023-02-03T01:41:24.848Z,10.60
2023-02-03T01:45:07.187Z,10.70
2023-02-03T01:48:49.209Z,10.70
2023-02-03T01:52:32.558Z,10.70
2023-02-03T01:56:14.208Z,10.70
2023-02-03T01:59:59.223Z,10.80
2023-02-03T02:03:54.494Z,10.80
2023-02-03T02:07:38.161Z,10.80
2023-02-03T02:11:21.496Z,10.80
2023-02-03T02:15:03.909Z,10.80
2023-02-03T02:18:51.644Z,10.80
2023-02-03T02:22:59.607Z,10.80
2023-02-03T02:27:18.318Z,10.80
2023-02-03T02:31:15.804Z,10.80
2023-02-03T02:35:09.543Z,10.80
2023-02-03T02:39:09.796Z,10.80
2023-02-03T02:43:01.781Z,10.80
2023-02-03T02:46:49.703Z,10.80
2023-02-03T02:50:37.558Z,10.90
2023-02-03T02:54:24.095Z,10.80
2023-02-03T02:58:09.017Z,10.80
2023-02-03T03:01:51.562Z,10.90
2023-02-03T03:05:33.589Z,10.90
2023-02-03T03:09:29.872Z,10.90
2023-02-03T03:13:20.520Z,10.90
2023-02-03T03:17:07.980Z,10.90
2023-02-03T03:20:52.886Z,10.90
2023-02-03T03:24:41.250Z,10.90
2023-02-03T03:28:33.177Z,10.90
2023-02-03T03:32:15.507Z,10.90
2023-02-03T03:36:00.360Z,10.90
2023-02-03T03:39:45.127Z,10.90
2023-02-03T03:43:32.803Z,10.90
2023-02-03T03:47:31.362Z,10.90
2023-02-03T03:51:19.201Z,10.90
2023-02-03T03:55:03.751Z,10.90
2023-02-03T03:58:48.762Z,10.90
2023-02-03T04:02:32.592Z,10.90
2023-02-03T04:06:14.787Z,10.90
2023-02-03T04:09:56.507Z,10.90
2023-02-03T04:13:38.185Z,10.80
2023-02-03T04:17:20.291Z,10.90
2023-02-03T04:21:02.111Z,10.80
2023-02-03T04:24:43.866Z,10.80
2023-02-03T04:28:25.561Z,10.80
2023-02-03T04:32:07.365Z,10.80
2023-02-03T04:35:49.108Z,10.80
2023-02-03T04:39:30.956Z,10.70
2023-02-03T04:43:14.230Z,10.70
2023-02-03T04:46:55.881Z,10.70
2023-02-03T04:50:37.620Z,10.70
2023-02-03T04:54:19.355Z,10.70
2023-02-03T04:58:01.486Z,10.70
2023-02-03T05:01:43.314Z,10.70
2023-02-03T05:05:25.114Z,10.70
2023-02-03T05:09:07.025Z,10.70
2023-02-03T05:12:48.767Z,10.70
2023-02-03T05:16:30.655Z,10.70
2023-02-03T05:20:12.634Z,10.70
2023-02-03T05:23:54.433Z,10.80
2023-02-03T05:27:38.530Z,10.80
2023-02-03T05:31:20.438Z,10.70
2023-02-03T05:35:02.261Z,10.70
2023-02-03T05:38:43.994Z,10.70
2023-02-03T05:42:25.701Z,10.60
2023-02-03T05:46:08.160Z,10.60
2023-02-03T05:49:49.887Z,10.50
2023-02-03T05:53:31.631Z,10.50
2023-02-03T05:57:13.532Z,10.50
2023-02-03T06:00:55.264Z,10.50
2023-02-03T06:04:37.202Z,10.50
2023-02-03T06:08:18.945Z,10.60
2023-02-03T06:12:00.641Z,10.60
2023-02-03T06:15:42.967Z,10.60
2023-02-03T06:19:24.724Z,10.60
2023-02-03T06:23:06.437Z,10.60
2023-02-03T06:26:48.161Z,10.70
2023-02-03T06:30:30.236Z,10.70
2023-02-03T06:34:12.170Z,10.70
2023-02-03T06:37:53.989Z,10.70
2023-02-03T06:41:35.777Z,10.70
2023-02-03T06:45:18.436Z,10.80
2023-02-03T06:49:00.336Z,10.80
2023-02-03T06:52:42.407Z,10.80
2023-02-03T06:56:24.382Z,10.80
2023-02-03T07:00:06.731Z,10.80
2023-02-03T07:03:48.516Z,10.80
2023-02-03T07:07:32.468Z,10.80
2023-02-03T07:11:14.248Z,10.80
2023-02-03T07:14:55.981Z,10.80
2023-02-03T07:18:53.328Z,10.70
2023-02-03T07:22:36.407Z,10.60
2023-02-03T07:26:18.935Z,10.50
2023-02-03T07:30:01.247Z,10.50
2023-02-03T07:33:42.986Z,10.40
2023-02-03T07:37:24.855Z,10.40
2023-02-03T07:41:07.180Z,10.30
2023-02-03T07:44:48.872Z,10.20
2023-02-03T07:48:30.608Z,10.30
2023-02-03T07:52:12.343Z,10.30
2023-02-03T07:55:54.069Z,10.30
2023-02-03T07:59:35.782Z,10.40
2023-02-03T08:03:17.699Z,10.40
2023-02-03T08:06:59.513Z,10.40
2023-02-03T08:10:41.273Z,10.50
2023-02-03T08:14:23.915Z,10.50
2023-02-03T08:18:05.977Z,10.60
2023-02-03T08:21:47.855Z,10.60
2023-02-03T08:25:29.618Z,10.70
2023-02-03T08:29:11.791Z,10.70
2023-02-03T08:32:53.507Z,10.80
2023-02-03T08:36:37.042Z,10.80
2023-02-03T08:40:18.836Z,10.80
2023-02-03T08:44:01.278Z,10.80
2023-02-03T08:47:43.058Z,10.90
2023-02-03T08:51:24.893Z,10.90
2023-02-03T08:55:06.929Z,10.90
2023-02-03T08:58:48.917Z,10.90
2023-02-03T09:02:30.662Z,10.90
2023-02-03T09:06:16.550Z,10.90
2023-02-03T09:09:58.457Z,10.90
2023-02-03T09:13:45.340Z,10.90
2023-02-03T09:17:28.128Z,10.90
2023-02-03T09:21:20.816Z,10.90
2023-02-03T09:25:09.568Z,10.90
2023-02-03T09:28:52.834Z,10.90
2023-02-03T09:32:34.440Z,10.90
2023-02-03T09:36:16.292Z,11.00
2023-02-03T09:39:59.069Z,11.00
2023-02-03T09:43:49.558Z,11.00
2023-02-03T09:47:36.202Z,11.10
2023-02-03T09:51:22.961Z,11.10
2023-02-03T09:55:26.143Z,11.20
2023-02-03T09:59:09.717Z,11.20
2023-02-03T10:03:03.369Z,11.30
2023-02-03T10:06:47.133Z,11.40
2023-02-03T10:10:40.546Z,11.40
2023-02-03T10:14:37.995Z,11.50
2023-02-03T10:18:33.330Z,11.60
2023-02-03T10:22:26.004Z,11.60
2023-02-03T10:26:17.433Z,11.60
2023-02-03T10:30:05.616Z,11.70
2023-02-03T10:33:48.313Z,11.70
2023-02-03T10:37:35.244Z,11.70
2023-02-03T10:41:19.258Z,11.80
2023-02-03T10:45:03.571Z,11.80
2023-02-03T10:48:45.308Z,11.80
2023-02-03T10:52:35.320Z,11.80
2023-02-03T10:56:20.543Z,11.90
2023-02-03T11:00:30.874Z,11.90
2023-02-03T11:04:27.767Z,11.90
2023-02-03T11:08:16.238Z,12.00
2023-02-03T11:12:14.703Z,12.00
2023-02-03T11:16:01.687Z,12.10
2023-02-03T11:19:48.426Z,12.10
2023-02-03T11:23:30.184Z,12.20
2023-02-03T11:27:16.044Z,12.20
2023-02-03T11:30:59.035Z,12.20
2023-02-03T11:35:08.814Z,12.30
2023-02-03T11:38:50.642Z,12.30
2023-02-03T11:42:32.636Z,12.30
2023-02-03T11:46:16.088Z,12.30
2023-02-03T11:50:25.863Z,12.40
2023-02-03T11:54:56.658Z,12.40
2023-02-03T11:58:44.773Z,12.40
2023-02-03T12:02:47.747Z,12.40
2023-02-03T12:06:55.153Z,12.50
2023-02-03T12:11:04.908Z,12.50
2023-02-03T12:14:58.247Z,12.50
2023-02-03T12:18:39.893Z,12.60
2023-02-03T12:22:39.690Z,12.70
2023-02-03T12:26:23.314Z,12.70
2023-02-03T12:30:24.535Z,12.80
2023-02-03T12:34:29.393Z,12.80
2023-02-03T12:38:35.462Z,12.90
2023-02-03T12:42:26.241Z,12.90
2023-02-03T12:46:16.449Z,12.90
2023-02-03T12:50:04.357Z,13.00
2023-02-03T12:53:51.820Z,13.00
2023-02-03T12:58:00.070Z,13.10
2023-02-03T13:02:13.814Z,13.10
2023-02-03T13:06:09.349Z,13.10
2023-02-03T13:10:15.907Z,13.10
2023-02-03T13:14:15.591Z,13.10
2023-02-03T13:18:10.838Z,13.10
2023-02-03T13:21:52.946Z,13.10
2023-02-03T13:26:13.631Z,13.10
2023-02-03T13:29:58.093Z,13.10
2023-02-03T13:33:57.393Z,13.20
2023-02-03T13:37:48.927Z,13.20
2023-02-03T13:41:57.430Z,13.20
2023-02-03T13:45:45.059Z,13.20
2023-02-03T13:49:49.231Z,13.30
2023-02-03T13:53:39.449Z,13.30
2023-02-03T13:57:35.172Z,13.30
2023-02-03T14:01:38.591Z,13.40
2023-02-03T14:05:40.098Z,13.50
2023-02-03T14:09:31.856Z,13.40
2023-02-03T14:13:21.361Z,13.40
2023-02-03T14:17:03.486Z,13.40
2023-02-03T14:20:51.408Z,13.40
2023-02-03T14:24:45.049Z,13.40
2023-02-03T14:28:45.088Z,13.40
2023-02-03T14:32:50.826Z,13.40
2023-02-03T14:36:35.307Z,13.40
2023-02-03T14:40:30.262Z,13.40
2023-02-03T14:44:48.114Z,13.50
2023-02-03T14:48:35.586Z,13.40
2023-02-03T14:52:28.595Z,13.40
2023-02-03T14:56:57.544Z,13.40
2023-02-03T15:00:39.308Z,13.40
2023-02-03T15:04:23.199Z,13.40
2023-02-03T15:08:05.346Z,13.40
2023-02-03T15:11:47.920Z,13.40
2023-02-03T15:15:32.999Z,13.40
2023-02-03T15:19:18.735Z,13.40
2023-02-03T15:23:01.264Z,13.30
2023-02-03T15:26:48.547Z,13.30
2023-02-03T15:30:30.578Z,13.30
2023-02-03T15:34:36.436Z,13.30
2023-02-03T15:38:34.127Z,13.20
2023-02-03T15:42:44.737Z,13.20
2023-02-03T15:46:31.232Z,13.10
2023-02-03T15:50:36.480Z,13.00
2023-02-03T15:54:53.385Z,12.90
2023-02-03T15:58:45.703Z,12.80
2023-02-03T16:02:30.097Z,12.80
2023-02-03T16:06:27.516Z,12.80
2023-02-03T16:10:30.053Z,12.70
2023-02-03T16:14:30.836Z,12.70
2023-02-03T16:18:17.976Z,12.70
2023-02-03T16:22:00.156Z,12.70
2023-02-03T16:25:41.930Z,12.60
2023-02-03T16:29:48.218Z,12.60
2023-02-03T16:33:50.812Z,12.50
2023-02-03T16:38:01.253Z,12.50
2023-02-03T16:42:01.755Z,12.50
2023-02-03T16:46:02.143Z,12.40
2023-02-03T16:50:02.663Z,12.40
2023-02-03T16:53:48.117Z,12.30
2023-02-03T16:57:30.004Z,12.30
2023-02-03T17:01:12.270Z,12.30
2023-02-03T17:04:54.058Z,12.20
2023-02-03T17:08:37.115Z,12.20
2023-02-03T17:12:18.846Z,12.20
2023-02-03T17:16:00.784Z,12.20
2023-02-03T17:19:43.835Z,12.10
2023-02-03T17:23:25.554Z,12.10
2023-02-03T17:27:07.259Z,12.10
2023-02-03T17:31:07.468Z,12.00
2023-02-03T17:34:49.193Z,12.00
2023-02-03T17:38:32.224Z,12.00
2023-02-03T17:54:17.023Z,11.90
2023-02-03T17:57:58.746Z,11.80
2023-02-03T18:01:40.568Z,11.90
2023-02-03T18:05:22.293Z,11.80
2023-02-03T18:09:06.830Z,11.80
2023-02-03T18:12:49.104Z,11.80
2023-02-03T18:16:34.754Z,11.80
2023-02-03T18:20:16.577Z,11.80
2023-02-03T18:24:01.994Z,11.80
2023-02-03T18:27:44.013Z,11.80
2023-02-03T18:31:25.921Z,11.80
2023-02-03T18:35:12.918Z,11.80
2023-02-03T18:38:54.679Z,11.80
2023-02-03T18:42:36.472Z,11.80
2023-02-03T18:46:24.771Z,11.80
2023-02-03T18:50:06.890Z,11.80
2023-02-03T18:53:49.232Z,11.80
2023-02-03T18:57:31.003Z,11.80
2023-02-03T19:01:28.442Z,11.80
2023-02-03T19:05:11.628Z,11.70
2023-02-03T19:08:53.375Z,11.70
2023-02-03T19:12:35.080Z,11.70
2023-02-03T19:16:18.082Z,11.70
2023-02-03T19:19:59.933Z,11.70
2023-02-03T19:23:42.322Z,11.70
2023-02-03T19:27:24.878Z,11.70
2023-02-03T19:31:15.202Z,11.70
2023-02-03T19:34:57.071Z,11.70
2023-02-03T19:38:38.955Z,11.60
2023-02-03T19:42:20.659Z,11.60
2023-02-03T19:46:02.455Z,11.60
2023-02-03T19:49:44.301Z,11.60
2023-02-03T19:53:26.404Z,11.60
2023-02-03T19:57:08.414Z,11.60
2023-02-03T20:00:50.224Z,11.60
2023-02-03T20:04:33.905Z,11.60
2023-02-03T20:08:16.688Z,11.60
2023-02-03T20:11:59.633Z,11.60
2023-02-03T20:15:47.419Z,11.60
2023-02-03T20:19:29.232Z,11.60
2023-02-03T20:23:11.119Z,11.60
2023-02-03T20:26:52.824Z,11.60
2023-02-03T20:30:34.966Z,11.50
2023-02-03T20:34:16.668Z,11.50
2023-02-03T20:37:58.354Z,11.50
2023-02-03T20:41:40.052Z,11.50
2023-02-03T20:45:24.088Z,11.50
2023-02-03T20:49:13.567Z,11.50
2023-02-03T20:52:55.249Z,11.50
2023-02-03T20:56:36.939Z,11.40
2023-02-03T21:00:25.143Z,11.40
2023-02-03T21:04:36.830Z,11.30
2023-02-03T21:08:20.214Z,11.30
2023-02-03T21:12:01.920Z,11.30
2023-02-03T21:15:44.387Z,11.30
2023-02-03T21:19:32.563Z,11.20
2023-02-03T21:23:14.334Z,11.20
2023-02-03T21:26:57.436Z,11.20
2023-02-03T21:30:39.176Z,11.20
2023-02-03T21:34:33.565Z,11.10
2023-02-03T21:38:32.572Z,11.10
2023-02-03T21:42:41.118Z,11.00
2023-02-03T21:46:25.685Z,11.00
2023-02-03T21:50:26.748Z,11.00
2023-02-03T21:54:23.603Z,11.00
2023-02-03T21:58:37.782Z,11.00
2023-02-03T22:02:39.500Z,11.00
2023-02-03T22:06:43.626Z,11.00
2023-02-03T22:10:25.328Z,11.00
2023-02-03T22:14:07.147Z,11.00
2023-02-03T22:17:49.760Z,11.00
2023-02-03T22:21:40.536Z,11.00
2023-02-03T22:25:28.908Z,11.00
2023-02-03T22:29:28.252Z,11.10
2023-02-03T22:33:12.818Z,11.00
2023-02-03T22:37:02.405Z,11.00
2023-02-03T22:40:45.418Z,11.00
2023-02-03T22:44:28.423Z,11.00
2023-02-03T22:48:10.318Z,11.00
2023-02-03T22:51:52.875Z,11.00
2023-02-03T22:55:35.464Z,11.00
2023-02-03T22:59:20.831Z,11.00
2023-02-03T23:03:05.732Z,11.00
2023-02-03T23:06:47.999Z,11.00
2023-02-03T23:10:40.424Z,10.90
2023-02-03T23:14:22.515Z,10.90
2023-02-03T23:18:04.411Z,10.90
2023-02-03T23:21:46.345Z,10.90
2023-02-03T23:25:28.278Z,10.90
2023-02-03T23:29:10.029Z,10.90
2023-02-03T23:32:51.800Z,10.90
2023-02-03T23:36:33.778Z,10.90
2023-02-03T23:40:16.309Z,10.90
2023-02-03T23:43:58.072Z,10.90
2023-02-03T23:47:41.538Z,10.90
2023-02-03T23:51:23.387Z,10.90
2023-02-03T23:55:11.530Z,10.90
2023-02-03T23:58:54.472Z,10.90
